Andover, New York
Current Conditions -  °F | °C
As of 7:56 PM on Saturday 22 Nov 2014 (Local Time) from KELZ Reporting Station
Light Rain Light Rain  
Wind Chill: -1°   Ceiling: 1900
Heat Index:   Visibility: 10mi
Dew Point:   Wind: 15mph
Humidity: 82%   Direction: 230°SW
Pressure: 30.05"   Gusts: 26mph
Location:  42.16°N, 77.8°W
Report Text: KELZ 230056Z AUTO 23013G23KT 10SM -RA OVC019 04/01 A3005 RMK AO2 PK WND 24027/0035 RAB04E32B54 SLP197 P0000 T00390011
Loading
Personal Weather Stations






























Interactive Weather Map New forecast layout! Learn more

10-Day Weather Forecast

Advertisements
Track Severe Weather on mobile